Preview of NWS' New Version of Forecast
This preview is not operational and should not be used for support decisions.

Terminal Aerodrome Forecast (TAF)

Issued by National Weather Service (NWS)

                            
954 
FTUS42 KKEY 212339
TAFMTH
TAF
KMTH 212339Z 2200/2224 08012G21KT P6SM VCSH FEW025 SCT060
     FM220200 08010G18KT P6SM FEW020 SCT035
     FM220800 11015G25KT P6SM VCSH SCT020 BKN060
     FM221300 10012G20KT P6SM FEW020 SCT060=